Terminal Aerodrome Forecast
Issued by NWS

Home | Current Version | Previous Version | Text Only | Print | Product List | Glossary Off
Versions: 1 2 3 4 5 6 7 8 9 10 11 12 13 14 15 16

000
FTUS43 KBIS 161700 RRA
TAFMOT
TAF
KMOT 161743Z 1618/1718 05013KT P6SM -SHSN BKN035
      TEMPO 1618/1621 5SM -SN OVC025
     FM162300 06010KT P6SM BKN025
     FM171000 09005KT 5SM BR OVC018
     FM171500 12008KT P6SM BKN030=

USA.gov is the U.S. government's official web portal to all federal, state and local government web resources and services.